createdAt,value
2022-08-07T00:02:35.285Z,6.85
2022-08-07T00:04:09.663Z,7.95
2022-08-07T00:06:51.056Z,8.60
2022-08-07T00:09:21.150Z,11.40
2022-08-07T00:11:55.303Z,7.90
2022-08-07T00:14:30.279Z,6.18
2022-08-07T00:17:02.615Z,9.88
2022-08-07T00:19:59.638Z,10.10
2022-08-07T00:22:24.669Z,7.53
2022-08-07T00:27:52.994Z,8.70
2022-08-07T00:30:27.589Z,8.30
2022-08-07T00:32:59.567Z,9.48
2022-08-07T00:35:27.271Z,10.02
2022-08-07T00:37:57.018Z,13.18
2022-08-07T00:40:36.717Z,9.35
2022-08-07T00:43:10.793Z,9.38
2022-08-07T00:45:56.168Z,8.05
2022-08-07T00:48:31.062Z,7.45
2022-08-07T00:51:00.172Z,9.85
2022-08-07T00:53:27.109Z,5.75
2022-08-07T00:56:13.903Z,9.88
2022-08-07T00:58:46.722Z,7.30
2022-08-07T01:01:15.620Z,8.32
2022-08-07T01:03:56.480Z,10.40
2022-08-07T01:06:27.557Z,7.10
2022-08-07T01:08:55.730Z,5.60
2022-08-07T01:12:08.933Z,9.82
2022-08-07T01:14:15.471Z,8.25
2022-08-07T01:16:47.239Z,7.97
2022-08-07T01:19:19.120Z,6.70
2022-08-07T01:21:48.425Z,8.00
2022-08-07T01:24:18.769Z,9.00
2022-08-07T01:26:51.989Z,6.68
2022-08-07T01:29:22.048Z,7.75
2022-08-07T01:31:49.670Z,7.78
2022-08-07T01:34:18.096Z,5.93
2022-08-07T01:36:51.386Z,9.48
2022-08-07T01:39:20.027Z,6.72
2022-08-07T01:42:07.147Z,9.75
2022-08-07T01:44:34.995Z,10.38
2022-08-07T01:47:14.455Z,6.57
2022-08-07T01:49:49.291Z,6.82
2022-08-07T01:52:24.675Z,8.13
2022-08-07T01:54:56.527Z,6.43
2022-08-07T01:57:30.090Z,7.80
2022-08-07T02:00:13.070Z,5.97
2022-08-07T02:03:19.359Z,10.85
2022-08-07T02:06:30.837Z,5.93
2022-08-07T02:09:03.618Z,12.85
2022-08-07T02:12:03.939Z,8.63
2022-08-07T02:14:36.403Z,12.50
2022-08-07T02:17:10.984Z,9.35
2022-08-07T02:20:07.057Z,4.85
2022-08-07T02:22:31.208Z,8.98
2022-08-07T02:24:58.897Z,7.85
2022-08-07T02:27:34.787Z,9.90
2022-08-07T02:30:07.094Z,6.88
2022-08-07T02:33:00.261Z,5.65
2022-08-07T02:36:30.727Z,11.30
2022-08-07T02:38:14.831Z,6.57
2022-08-07T02:40:44.528Z,7.13
2022-08-07T02:43:15.982Z,8.82
2022-08-07T02:45:59.145Z,6.70
2022-08-07T02:48:28.087Z,10.38
2022-08-07T02:50:56.145Z,6.93
2022-08-07T02:53:27.631Z,6.28
2022-08-07T02:56:03.267Z,7.75
2022-08-07T02:58:33.905Z,7.78
2022-08-07T03:01:03.096Z,6.90
2022-08-07T03:03:49.985Z,8.63
2022-08-07T03:06:25.878Z,5.15
2022-08-07T03:09:02.584Z,5.55
2022-08-07T03:11:32.778Z,9.23
2022-08-07T03:14:06.097Z,7.97
2022-08-07T03:16:34.150Z,8.77
2022-08-07T03:19:01.608Z,8.93
2022-08-07T03:21:33.078Z,4.43
2022-08-07T03:24:19.376Z,9.88
2022-08-07T03:26:51.274Z,7.95
2022-08-07T03:29:28.151Z,4.38
2022-08-07T03:31:56.193Z,6.97
2022-08-07T03:34:27.175Z,8.57
2022-08-07T03:36:57.376Z,7.30
2022-08-07T03:39:45.839Z,6.30
2022-08-07T03:42:16.006Z,8.63
2022-08-07T03:44:47.356Z,9.70
2022-08-07T03:47:20.782Z,8.48
2022-08-07T03:49:52.335Z,8.35
2022-08-07T03:52:26.571Z,6.40
2022-08-07T03:55:07.501Z,6.75
2022-08-07T03:58:35.250Z,8.73
2022-08-07T04:00:30.482Z,7.45
2022-08-07T04:03:03.862Z,8.18
2022-08-07T04:05:40.682Z,9.13
2022-08-07T04:08:16.129Z,10.02
2022-08-07T04:10:54.116Z,5.47
2022-08-07T04:14:09.459Z,8.10
2022-08-07T04:16:31.546Z,12.13
2022-08-07T04:19:04.150Z,5.47
2022-08-07T04:21:39.872Z,12.02
2022-08-07T04:24:34.308Z,4.65
2022-08-07T04:27:06.191Z,7.47
2022-08-07T04:29:58.977Z,7.20
2022-08-07T04:32:34.612Z,9.18
2022-08-07T04:35:11.298Z,9.30
2022-08-07T04:37:52.882Z,11.70
2022-08-07T04:40:29.558Z,9.38
2022-08-07T04:43:02.018Z,7.27
2022-08-07T04:45:57.812Z,7.70
2022-08-07T04:48:33.286Z,5.43
2022-08-07T04:51:09.338Z,3.10
2022-08-07T04:54:01.552Z,9.15
2022-08-07T04:58:11.156Z,6.43
2022-08-07T05:00:14.538Z,8.43
2022-08-07T05:02:50.870Z,7.07
2022-08-07T05:05:53.911Z,7.13
2022-08-07T05:08:13.396Z,6.53
2022-08-07T05:10:46.035Z,6.32
2022-08-07T05:14:54.447Z,9.27
2022-08-07T05:16:10.469Z,5.68
2022-08-07T05:18:44.736Z,7.25
2022-08-07T05:21:14.715Z,7.40
2022-08-07T05:23:45.739Z,7.47
2022-08-07T05:26:23.646Z,8.60
2022-08-07T05:28:55.725Z,6.30
2022-08-07T05:31:35.137Z,8.90
2022-08-07T05:34:11.350Z,8.10
2022-08-07T05:36:48.979Z,4.57
2022-08-07T05:40:13.833Z,6.15
2022-08-07T05:42:12.434Z,9.35
2022-08-07T05:44:41.610Z,7.82
2022-08-07T05:47:19.964Z,6.82
2022-08-07T05:49:52.039Z,8.38
2022-08-07T05:52:20.160Z,4.82
2022-08-07T05:54:55.974Z,6.32
2022-08-07T05:57:30.340Z,5.80
2022-08-07T06:00:01.930Z,4.53
2022-08-07T06:02:31.582Z,6.20
2022-08-07T06:05:05.020Z,10.98
2022-08-07T06:08:13.406Z,5.55
2022-08-07T06:10:21.770Z,6.32
2022-08-07T06:12:49.761Z,8.10
2022-08-07T06:15:19.665Z,5.97
2022-08-07T06:17:53.325Z,7.35
2022-08-07T06:20:49.687Z,5.95
2022-08-07T06:23:46.465Z,8.88
2022-08-07T06:26:00.841Z,6.35
2022-08-07T06:28:28.905Z,6.13
2022-08-07T06:30:58.764Z,8.55
2022-08-07T06:33:26.229Z,6.90
2022-08-07T06:36:06.797Z,6.78
2022-08-07T06:38:58.540Z,4.22
2022-08-07T06:42:00.815Z,5.38
2022-08-07T06:44:21.103Z,4.88
2022-08-07T06:46:53.535Z,5.32
2022-08-07T06:49:26.971Z,4.88
2022-08-07T06:51:59.482Z,8.20
2022-08-07T06:55:34.100Z,4.07
2022-08-07T06:57:22.339Z,4.20
2022-08-07T07:00:11.648Z,4.60
2022-08-07T07:02:53.570Z,4.47
2022-08-07T07:06:03.164Z,6.15
2022-08-07T07:08:18.475Z,8.23
2022-08-07T07:10:56.660Z,3.72
2022-08-07T07:13:43.674Z,4.53
2022-08-07T07:16:30.154Z,6.53
2022-08-07T07:19:11.268Z,6.13
2022-08-07T07:22:05.138Z,5.80
2022-08-07T07:24:43.138Z,5.10
2022-08-07T07:27:35.554Z,5.13
2022-08-07T07:30:32.758Z,5.45
2022-08-07T07:33:05.084Z,4.10
2022-08-07T07:35:54.240Z,5.00
2022-08-07T07:38:25.485Z,5.80
2022-08-07T07:41:02.587Z,2.15
2022-08-07T07:44:14.696Z,4.95
2022-08-07T07:46:37.327Z,6.60
2022-08-07T07:50:35.167Z,4.80
2022-08-07T07:52:01.346Z,4.03
2022-08-07T07:54:31.836Z,4.22
2022-08-07T07:57:01.798Z,4.25
2022-08-07T07:59:52.012Z,3.25
2022-08-07T08:02:34.044Z,3.58
2022-08-07T08:05:14.245Z,6.10
2022-08-07T08:08:00.043Z,2.70
2022-08-07T08:10:37.936Z,2.58
2022-08-07T08:13:10.348Z,5.32
2022-08-07T08:15:57.685Z,2.13
2022-08-07T08:18:28.035Z,6.15
2022-08-07T08:20:58.363Z,3.15
2022-08-07T08:23:46.560Z,2.40
2022-08-07T08:26:34.226Z,1.35
2022-08-07T08:29:04.334Z,4.07
2022-08-07T08:31:58.998Z,3.22
2022-08-07T08:34:29.037Z,1.98
2022-08-07T08:37:02.888Z,5.28
2022-08-07T08:39:39.452Z,4.78
2022-08-07T08:42:27.764Z,2.65
2022-08-07T08:45:17.426Z,2.17
2022-08-07T08:48:04.724Z,2.05
2022-08-07T08:50:40.584Z,3.47
2022-08-07T08:53:13.757Z,3.17
2022-08-07T08:55:53.127Z,1.70
2022-08-07T08:58:47.690Z,4.15
2022-08-07T09:01:39.843Z,1.35
2022-08-07T09:04:25.637Z,3.53
2022-08-07T09:06:58.879Z,3.63
2022-08-07T09:09:57.131Z,3.90
2022-08-07T09:12:53.319Z,1.55
2022-08-07T09:16:20.174Z,1.25
2022-08-07T09:18:29.843Z,1.00
2022-08-07T09:21:13.974Z,1.65
2022-08-07T09:24:30.927Z,3.00
2022-08-07T09:27:19.882Z,0.88
2022-08-07T09:30:05.534Z,2.80
2022-08-07T09:32:52.836Z,2.42
2022-08-07T09:36:05.063Z,2.17
2022-08-07T09:38:56.190Z,1.45
2022-08-07T09:41:58.875Z,0.80
2022-08-07T09:44:52.198Z,0.57
2022-08-07T09:48:01.399Z,2.63
2022-08-07T09:51:25.900Z,2.72
2022-08-07T09:54:02.300Z,0.40
2022-08-07T09:57:13.947Z,2.80
2022-08-07T10:00:00.639Z,0.88
2022-08-07T10:02:55.779Z,0.82
2022-08-07T10:05:29.658Z,1.10
2022-08-07T10:08:51.676Z,2.47
2022-08-07T10:12:01.204Z,0.65
2022-08-07T10:14:47.433Z,0.93
2022-08-07T10:18:00.162Z,3.63
2022-08-07T10:20:31.998Z,0.30
2022-08-07T10:24:06.227Z,1.05
2022-08-07T10:26:53.242Z,0.30
2022-08-07T10:29:51.816Z,0.73
2022-08-07T10:32:59.512Z,0.30
2022-08-07T10:35:55.404Z,1.40
2022-08-07T10:38:42.366Z,0.88
2022-08-07T10:41:47.193Z,0.75
2022-08-07T10:44:47.220Z,0.90
2022-08-07T10:47:54.100Z,0.50
2022-08-07T10:50:29.884Z,1.60
2022-08-07T10:53:44.320Z,0.77
2022-08-07T10:56:49.363Z,2.78
2022-08-07T10:59:45.353Z,1.23
2022-08-07T11:02:34.969Z,0.60
2022-08-07T11:05:11.391Z,0.85
2022-08-07T11:07:59.628Z,1.63
2022-08-07T11:10:37.494Z,2.22
2022-08-07T11:14:42.126Z,1.05
2022-08-07T11:16:34.040Z,0.88
2022-08-07T11:19:04.149Z,1.13
2022-08-07T11:22:03.976Z,1.03
2022-08-07T11:24:58.673Z,1.48
2022-08-07T11:28:02.554Z,0.82
2022-08-07T11:30:45.552Z,1.95
2022-08-07T11:33:59.703Z,0.70
2022-08-07T11:36:30.746Z,0.77
2022-08-07T11:39:19.843Z,1.25
2022-08-07T11:42:22.562Z,0.70
2022-08-07T11:45:15.827Z,0.40
2022-08-07T11:48:29.433Z,0.77
2022-08-07T11:51:44.763Z,1.38
2022-08-07T11:54:30.390Z,0.82
2022-08-07T11:57:06.140Z,0.98
2022-08-07T12:00:12.466Z,0.30
2022-08-07T12:02:52.005Z,1.17
2022-08-07T12:05:49.302Z,1.42
2022-08-07T12:08:31.389Z,0.50
2022-08-07T12:11:21.119Z,0.63
2022-08-07T12:14:19.164Z,1.75
2022-08-07T12:16:58.360Z,1.17
2022-08-07T12:19:35.711Z,2.25
2022-08-07T12:22:37.656Z,1.75
2022-08-07T12:26:21.931Z,0.85
2022-08-07T12:28:44.993Z,2.20
2022-08-07T12:31:53.198Z,0.98
2022-08-07T12:34:30.351Z,4.57
2022-08-07T12:36:58.816Z,0.50
2022-08-07T12:39:43.961Z,0.70
2022-08-07T12:42:27.605Z,0.77
2022-08-07T12:44:58.139Z,1.48
2022-08-07T12:47:37.740Z,0.82
2022-08-07T12:50:34.017Z,4.25
2022-08-07T12:54:02.875Z,1.58
2022-08-07T12:56:36.764Z,0.40
2022-08-07T12:59:08.390Z,1.83
2022-08-07T13:02:16.819Z,0.80
2022-08-07T13:05:15.112Z,0.70
2022-08-07T13:08:13.421Z,1.48
2022-08-07T13:11:02.811Z,0.98
2022-08-07T13:13:47.038Z,1.13
2022-08-07T13:16:37.609Z,0.65
2022-08-07T13:19:46.261Z,0.63
2022-08-07T13:22:32.321Z,1.20
2022-08-07T13:25:29.063Z,2.25
2022-08-07T13:28:24.197Z,3.63
2022-08-07T13:31:13.252Z,3.35
2022-08-07T13:34:31.190Z,0.57
2022-08-07T13:37:25.354Z,2.38
2022-08-07T13:40:36.371Z,1.33
2022-08-07T13:43:16.182Z,0.57
2022-08-07T13:48:39.729Z,1.65
2022-08-07T13:51:27.224Z,1.85
2022-08-07T13:54:05.272Z,3.88
2022-08-07T13:56:41.380Z,1.13
2022-08-07T13:59:27.277Z,2.55
2022-08-07T14:02:12.700Z,1.98
2022-08-07T14:08:00.611Z,2.40
2022-08-07T14:10:42.116Z,2.47
2022-08-07T14:13:16.276Z,2.35
2022-08-07T14:15:50.969Z,2.30
2022-08-07T14:18:29.856Z,1.95
2022-08-07T14:21:21.034Z,1.60
2022-08-07T14:24:02.065Z,1.48
2022-08-07T14:26:51.010Z,1.48
2022-08-07T14:30:06.368Z,1.35
2022-08-07T14:32:14.328Z,0.60
2022-08-07T14:34:47.575Z,2.20
2022-08-07T14:37:32.930Z,1.65
2022-08-07T14:40:15.804Z,3.28
2022-08-07T14:43:55.809Z,2.70
2022-08-07T14:45:57.802Z,1.35
2022-08-07T14:51:21.856Z,1.42
2022-08-07T14:54:30.077Z,1.48
2022-08-07T14:56:41.728Z,2.50
2022-08-07T14:59:13.958Z,2.33
2022-08-07T15:02:32.936Z,1.90
2022-08-07T15:10:36.790Z,1.35
2022-08-07T15:13:13.791Z,1.20
2022-08-07T15:18:41.601Z,0.70
2022-08-07T15:21:44.920Z,1.08
2022-08-07T15:25:15.911Z,1.58
2022-08-07T15:27:16.451Z,2.35
2022-08-07T15:30:04.694Z,2.15
2022-08-07T15:32:38.959Z,2.63
2022-08-07T15:35:12.500Z,1.33
2022-08-07T15:38:04.456Z,0.57
2022-08-07T15:40:34.154Z,1.48
2022-08-07T15:43:53.537Z,1.50
2022-08-07T15:46:34.301Z,2.67
2022-08-07T15:54:34.265Z,2.05
2022-08-07T15:57:03.534Z,4.88
2022-08-07T15:59:39.277Z,3.13
2022-08-07T16:02:25.235Z,3.63
2022-08-07T16:05:03.605Z,2.38
2022-08-07T16:08:32.440Z,4.88
2022-08-07T16:10:48.661Z,4.82
2022-08-07T16:13:59.438Z,5.80
2022-08-07T16:16:47.947Z,5.85
2022-08-07T16:19:09.547Z,7.05
2022-08-07T16:22:03.164Z,5.82
2022-08-07T16:24:52.727Z,5.85
2022-08-07T16:27:26.663Z,9.48
2022-08-07T16:30:32.022Z,4.03
2022-08-07T16:34:06.817Z,5.15
2022-08-07T16:36:47.865Z,5.15
2022-08-07T16:46:47.621Z,6.07
2022-08-07T16:52:11.403Z,3.97
2022-08-07T16:55:03.126Z,7.93
2022-08-07T17:00:53.731Z,3.75
2022-08-07T17:03:59.815Z,6.63
2022-08-07T17:10:06.824Z,2.97
2022-08-07T17:13:00.999Z,4.53
2022-08-07T17:15:44.605Z,5.18
2022-08-07T17:24:37.496Z,4.18
2022-08-07T17:27:22.536Z,4.82
2022-08-07T17:30:14.217Z,3.20
2022-08-07T17:33:05.130Z,3.78
2022-08-07T17:35:55.925Z,4.35
2022-08-07T17:38:33.077Z,4.28
2022-08-07T17:42:01.524Z,5.78
2022-08-07T17:44:33.643Z,4.63
2022-08-07T17:47:16.778Z,2.13
2022-08-07T17:50:00.333Z,2.78
2022-08-07T17:53:08.560Z,4.18
2022-08-07T17:56:15.394Z,2.22
2022-08-07T17:58:59.521Z,6.80
2022-08-07T18:01:37.201Z,7.47
2022-08-07T18:04:22.134Z,5.18
2022-08-07T18:07:20.298Z,5.35
2022-08-07T18:10:07.400Z,3.75
2022-08-07T18:13:01.119Z,6.53
2022-08-07T18:15:35.782Z,6.22
2022-08-07T18:18:46.130Z,3.95
2022-08-07T18:21:40.179Z,2.92
2022-08-07T18:24:33.409Z,5.00
2022-08-07T18:27:39.070Z,4.55
2022-08-07T18:30:31.237Z,3.95
2022-08-07T18:33:16.065Z,4.22
2022-08-07T18:35:51.642Z,5.38
2022-08-07T18:40:07.973Z,7.22
2022-08-07T18:41:55.494Z,3.15
2022-08-07T18:45:44.658Z,4.15
2022-08-07T18:50:05.908Z,3.00
2022-08-07T18:52:38.172Z,3.47
2022-08-07T18:54:27.602Z,4.43
2022-08-07T18:57:30.253Z,4.22
2022-08-07T19:00:32.371Z,0.95
2022-08-07T19:03:28.697Z,4.13
2022-08-07T19:06:16.740Z,3.17
2022-08-07T19:09:09.336Z,2.50
2022-08-07T19:12:13.225Z,1.92
2022-08-07T19:16:03.647Z,3.60
2022-08-07T19:21:09.671Z,1.33
2022-08-07T19:23:58.558Z,2.17
2022-08-07T19:26:47.912Z,1.67
2022-08-07T19:31:00.551Z,3.20
2022-08-07T19:32:18.027Z,2.55
2022-08-07T19:34:59.495Z,1.85
2022-08-07T19:37:47.278Z,0.85
2022-08-07T19:40:18.773Z,1.65
2022-08-07T19:42:58.669Z,1.52
2022-08-07T19:46:01.109Z,1.70
2022-08-07T19:48:18.650Z,2.97
2022-08-07T19:50:53.371Z,2.83
2022-08-07T19:54:32.447Z,3.20
2022-08-07T19:58:02.225Z,4.00
2022-08-07T19:59:00.169Z,2.50
2022-08-07T20:01:52.278Z,4.50
2022-08-07T20:04:48.932Z,3.55
2022-08-07T20:07:23.554Z,5.25
2022-08-07T20:10:36.757Z,2.53
2022-08-07T20:12:45.009Z,2.50
2022-08-07T20:15:22.044Z,3.15
2022-08-07T20:18:01.850Z,1.52
2022-08-07T20:20:31.668Z,4.57
2022-08-07T20:23:10.789Z,3.97
2022-08-07T20:25:53.165Z,4.18
2022-08-07T20:28:20.810Z,2.97
2022-08-07T20:30:58.798Z,2.70
2022-08-07T20:33:37.581Z,2.55
2022-08-07T20:36:07.431Z,5.03
2022-08-07T20:38:35.423Z,2.28
2022-08-07T20:41:27.780Z,3.13
2022-08-07T20:44:02.149Z,3.13
2022-08-07T20:46:42.719Z,2.17
2022-08-07T20:50:01.124Z,3.30
2022-08-07T20:51:59.168Z,4.72
2022-08-07T20:54:30.259Z,2.63
2022-08-07T20:57:03.794Z,2.17
2022-08-07T21:00:04.797Z,3.33
2022-08-07T21:02:53.921Z,3.80
2022-08-07T21:05:42.991Z,3.90
2022-08-07T21:08:16.488Z,3.50
2022-08-07T21:10:49.813Z,2.95
2022-08-07T21:13:24.619Z,3.80
2022-08-07T21:16:09.325Z,8.15
2022-08-07T21:18:41.186Z,3.72
2022-08-07T21:21:16.251Z,4.15
2022-08-07T21:23:53.604Z,3.80
2022-08-07T21:26:40.057Z,3.97
2022-08-07T21:29:18.791Z,1.17
2022-08-07T21:32:47.220Z,2.13
2022-08-07T21:35:01.480Z,3.25
2022-08-07T21:37:58.054Z,4.20
2022-08-07T21:43:10.833Z,3.75
2022-08-07T21:46:10.051Z,2.80
2022-08-07T21:48:57.510Z,2.55
2022-08-07T21:51:32.006Z,3.08
2022-08-07T21:54:34.397Z,3.53
2022-08-07T21:57:07.417Z,2.90
2022-08-07T22:00:19.189Z,7.00
2022-08-07T22:03:06.200Z,2.55
2022-08-07T22:05:44.780Z,3.85
2022-08-07T22:08:18.906Z,3.83
2022-08-07T22:10:59.946Z,3.15
2022-08-07T22:13:51.900Z,2.65
2022-08-07T22:16:42.878Z,3.25
2022-08-07T22:19:57.363Z,3.28
2022-08-07T22:22:30.856Z,2.78
2022-08-07T22:25:15.975Z,1.90
2022-08-07T22:28:29.813Z,3.03
2022-08-07T22:31:06.985Z,3.72
2022-08-07T22:33:52.707Z,4.53
2022-08-07T22:36:42.521Z,5.43
2022-08-07T22:39:51.771Z,5.05
2022-08-07T22:42:54.106Z,3.88
2022-08-07T22:46:04.366Z,1.65
2022-08-07T22:49:02.194Z,5.82
2022-08-07T22:52:39.942Z,3.00
2022-08-07T22:55:57.143Z,3.85
2022-08-07T22:58:51.380Z,2.58
2022-08-07T23:01:50.397Z,3.60
2022-08-07T23:04:30.783Z,2.45
2022-08-07T23:07:39.985Z,2.47
2022-08-07T23:10:37.678Z,3.92
2022-08-07T23:13:48.517Z,2.55
2022-08-07T23:16:54.844Z,2.10
2022-08-07T23:20:51.451Z,1.65
2022-08-07T23:24:05.112Z,3.90
2022-08-07T23:26:23.564Z,4.10
2022-08-07T23:30:35.328Z,1.40
2022-08-07T23:34:19.549Z,1.77
2022-08-07T23:35:37.266Z,1.95
2022-08-07T23:38:36.880Z,3.38
2022-08-07T23:41:24.588Z,1.55
2022-08-07T23:44:06.505Z,1.17
2022-08-07T23:46:43.165Z,5.03
2022-08-07T23:49:15.165Z,2.83
2022-08-07T23:53:01.582Z,3.40
2022-08-07T23:54:57.692Z,4.88
2022-08-07T23:57:41.058Z,2.85
